Riverside, AL

1:38 PM CDT on September 22, 2014 (GMT -0500)
N4WRC | Change Station
CLOSE
Current Station
Personal Weather Station
Location: Riverside, AL
Elevation: 541 ft
Nearby Weather Stations

Elev 541 ft 33.61 °N, 86.24 °W | Updated 30 seconds ago

Clear
Clear
79.0 °F
Feels Like 81 °F
N
0.0
Wind Variable Wind from WNW
Gusts 116.5 mph

Today
High -- | Low -- °F
--% Chance of Precip.
Yesterday
High -- | Low -- °F
Precip. -- in
6:33 AM 6:41 PM
Waning Crescent, 2% visible
Pressure 30.07 in
Visibility 10.0 miles
Clouds Clear
Heat Index 81 °F
Dew Point 62.9 °F
Humidity 58%
Rainfall 0.00 in
Snow Depth Not available.
UV 9 out of 12
Pollen 7.50 out of 12
Ozone Good
PM2.5 Moderate
Flu Activity Not available.
METAR KANB 221753Z AUTO 36008G14KT 10SM CLR 26/09 A3009 RMK AO2 SLP181 T02610089 10261 20178 58003

More Conditions Fewer Conditions

Pressure 30.07 in
Visibility 10.0 miles
Clouds Clear
Heat Index 81 °F
Dew Point 62.9 °F
Humidity 58%
Rainfall 0.00 in
Snow Depth Not available.
UV 9 out of 12
Pollen 7.50 out of 12
Ozone Good
PM2.5 Moderate
Flu Activity Not available.
METAR KANB 221753Z AUTO 36008G14KT 10SM CLR 26/09 A3009 RMK AO2 SLP181 T02610089 10261 20178 58003

More Conditions Fewer Conditions

10-Day Weather Forecast

Almanac

Astronomy

Sep. 22, 2014 Rise Set
Actual Time 6:33 AM CDT 6:41 PM CDT
Civil Twilight 6:08 AM CDT 7:06 PM CDT
Nautical Twilight 5:39 AM CDT 7:35 PM CDT
Astronomical Twilight 5:09 AM CDT 8:04 PM CDT
Moon 5:04 AM CDT 5:47 PM CDT
Length of Visible Light 12h 58m
Length of Day
12h 08m
Tomorrow will be 2m 4s shorter.
Waning Crescent, 2% of the Moon is Illuminated
Today
Waning Crescent
Sep 24
New
Oct 1
First Quarter
Oct 8
Full
Oct 15
Last Quarter

Today's Extremes

State Highs State Lows

Community

WunderPhotos

Upload Photos

1,755,507 photos uploaded!

WunderBlogs® & News

Nearby

Air Quality

  Air Quality AQ Index Pollutant
Yesterday Good
PM10
Yesterday Good
OZONE
Current Moderate
PM2.5
Current Good
OZONE
Monday Good
OZONE
Monday Good
PM2.5

Snow Depth

Station Depth Elevation
No new snow has been reported.

Earthquake Activity

City Distance Mag. Time & Date
No recent earthquake activity has been reported nearby.
Minimum magnitude displayed is 2.5.

Coastal Water Temperatures

Place Temperature
No Stations Reporting

Nearby Weather Stations